Time;durP1;ratioP1;P1;durP2;ratioP2;P2;SDS_P1;SDS_P2;PMS_P1;PMS_P2;Temp;Humidity;BMP_temperature;BMP_pressure;BME280_temperature;BME280_humidity;BME280_pressure;Samples;Min_cycle;Max_cycle;Signal;HPM_P1;HPM_P2
2022/06/07 00:01:21;;;;;;;6.88;4.40;;;;;;;;;;5091264;27;95509;-73
2022/06/07 00:03:47;;;;;;;7.75;4.78;;;;;;;;;;5094829;27;96378;-72
2022/06/07 00:06:14;;;;;;;9.30;5.25;;;;;;;;;;5094318;27;97284;-73
2022/06/07 00:08:41;;;;;;;8.52;4.75;;;;;;;;;;5096419;27;95275;-73
2022/06/07 00:11:08;;;;;;;7.32;4.68;;;;;;;;;;5091855;27;97486;-72
2022/06/07 00:13:34;;;;;;;6.88;4.60;;;;;;;;;;5094009;27;95176;-73
2022/06/07 00:16:00;;;;;;;9.68;5.43;;;;;;;;;;5093525;27;96814;-72
2022/06/07 00:18:26;;;;;;;10.05;5.82;;;;;;;;;;5092877;27;97389;-72
2022/06/07 00:20:53;;;;;;;7.82;4.85;;;;;;;;;;5089862;27;95221;-72
2022/06/07 00:23:20;;;;;;;7.78;4.90;;;;;;;;;;5092991;27;97189;-72
2022/06/07 00:25:48;;;;;;;7.68;4.80;;;;;;;;;;5093407;27;97292;-72
2022/06/07 00:28:14;;;;;;;8.65;5.00;;;;;;;;;;5095853;27;95359;-71
2022/06/07 00:30:41;;;;;;;11.32;5.32;;;;;;;;;;5089685;27;96264;-72
2022/06/07 00:33:07;;;;;;;9.23;5.13;;;;;;;;;;5083315;27;95191;-73
2022/06/07 00:35:34;;;;;;;10.73;5.18;;;;;;;;;;5072917;27;96995;-73
2022/06/07 00:38:00;;;;;;;8.65;4.93;;;;;;;;;;5072211;27;97814;-73
2022/06/07 00:40:27;;;;;;;11.88;5.45;;;;;;;;;;5081121;27;95537;-73
2022/06/07 00:42:53;;;;;;;9.63;4.63;;;;;;;;;;5091511;27;97457;-73
2022/06/07 00:45:25;;;;;;;8.32;4.90;;;;;;;;;;5092044;27;97194;-72
2022/06/07 00:47:51;;;;;;;8.68;5.10;;;;;;;;;;5091186;27;97530;-73
2022/06/07 00:50:27;;;;;;;8.40;5.18;;;;;;;;;;5078554;27;96859;-72
2022/06/07 00:52:53;;;;;;;8.52;5.07;;;;;;;;;;5084446;27;95345;-73
2022/06/07 00:55:20;;;;;;;7.75;4.68;;;;;;;;;;5095513;27;96709;-73
2022/06/07 00:57:46;;;;;;;11.82;5.35;;;;;;;;;;5087281;27;96116;-73
2022/06/07 01:00:14;;;;;;;8.98;5.78;;;;;;;;;;5074370;27;95349;-73
2022/06/07 01:02:41;;;;;;;11.55;6.40;;;;;;;;;;5076164;27;96702;-73
2022/06/07 01:05:07;;;;;;;9.68;5.45;;;;;;;;;;5075455;27;97501;-73
2022/06/07 01:13:04;;;;;;;9.35;5.43;;;;;;;;;;5079978;27;97258;-73
2022/06/07 01:15:30;;;;;;;9.82;5.47;;;;;;;;;;5078580;27;97146;-73
2022/06/07 01:17:56;;;;;;;11.63;5.80;;;;;;;;;;5094280;27;96902;-73
2022/06/07 01:20:23;;;;;;;9.55;5.35;;;;;;;;;;5095642;27;95451;-73
2022/06/07 01:22:49;;;;;;;9.85;5.43;;;;;;;;;;5096188;27;98590;-72
2022/06/07 01:25:21;;;;;;;12.32;5.72;;;;;;;;;;5096446;27;97294;-71
2022/06/07 01:27:47;;;;;;;11.00;5.57;;;;;;;;;;5094472;27;95302;-73
2022/06/07 01:30:13;;;;;;;12.20;6.50;;;;;;;;;;5084695;27;96760;-73
2022/06/07 01:32:40;;;;;;;8.88;5.60;;;;;;;;;;5092454;27;98320;-73
2022/06/07 01:35:07;;;;;;;11.95;5.38;;;;;;;;;;5099069;27;95350;-73
2022/06/07 01:37:34;;;;;;;10.75;5.75;;;;;;;;;;5093983;27;97513;-73
2022/06/07 01:42:45;;;;;;;10.85;6.32;;;;;;;;;;5090973;27;96644;-73
2022/06/07 01:45:12;;;;;;;8.55;5.30;;;;;;;;;;5095767;27;97364;-73
2022/06/07 01:47:38;;;;;;;9.10;5.72;;;;;;;;;;5086786;27;95378;-73
2022/06/07 01:50:06;;;;;;;9.63;5.65;;;;;;;;;;5075671;27;96821;-73
2022/06/07 01:52:33;;;;;;;14.05;6.65;;;;;;;;;;5086368;27;97336;-73
2022/06/07 01:55:00;;;;;;;12.32;6.55;;;;;;;;;;5093400;27;95372;-73
2022/06/07 01:57:27;;;;;;;12.48;6.47;;;;;;;;;;5098579;27;96774;-73
2022/06/07 01:59:55;;;;;;;11.07;6.00;;;;;;;;;;5092527;27;95527;-73
2022/06/07 02:02:24;;;;;;;9.13;5.88;;;;;;;;;;5087965;27;96978;-74
2022/06/07 02:04:51;;;;;;;10.25;5.97;;;;;;;;;;5074386;27;96161;-74
2022/06/07 02:07:19;;;;;;;9.10;5.68;;;;;;;;;;5093166;27;95111;-73
2022/06/07 02:09:45;;;;;;;10.82;6.38;;;;;;;;;;5095392;27;97206;-73
2022/06/07 02:12:11;;;;;;;10.95;6.65;;;;;;;;;;5093179;27;97318;-73
2022/06/07 02:14:41;;;;;;;11.98;6.35;;;;;;;;;;5095282;27;95366;-74
2022/06/07 02:17:08;;;;;;;9.93;5.75;;;;;;;;;;5094755;27;95732;-73
2022/06/07 02:19:35;;;;;;;9.52;5.90;;;;;;;;;;5097102;27;97357;-73
2022/06/07 02:22:02;;;;;;;10.57;5.95;;;;;;;;;;5092947;27;95704;-73
2022/06/07 02:24:29;;;;;;;8.90;5.18;;;;;;;;;;5093139;27;95204;-74
2022/06/07 02:26:57;;;;;;;10.45;5.88;;;;;;;;;;5095514;27;95431;-73
2022/06/07 02:29:25;;;;;;;11.25;5.82;;;;;;;;;;5092489;27;96659;-74
2022/06/07 02:31:54;;;;;;;9.85;6.13;;;;;;;;;;5092955;27;96419;-73
2022/06/07 02:34:21;;;;;;;11.63;6.50;;;;;;;;;;5076148;27;95489;-74
2022/06/07 02:36:50;;;;;;;12.52;6.85;;;;;;;;;;5074379;27;96802;-73
2022/06/07 02:39:16;;;;;;;10.95;6.25;;;;;;;;;;5077323;27;97382;-72
2022/06/07 02:41:44;;;;;;;10.35;6.07;;;;;;;;;;5074817;27;96528;-72
2022/06/07 02:44:10;;;;;;;11.80;6.15;;;;;;;;;;5094653;27;97755;-72
2022/06/07 02:46:36;;;;;;;10.40;6.10;;;;;;;;;;5095225;27;95389;-71
2022/06/07 02:49:03;;;;;;;11.48;5.85;;;;;;;;;;5077377;27;96694;-72
2022/06/07 02:55:19;;;;;;;11.30;6.22;;;;;;;;;;5069668;27;1313694;-72
2022/06/07 20:54:25;;;;;;;4.53;2.50;;;;;;;;;;4378050;27;18602415;-73
2022/06/07 20:56:51;;;;;;;5.70;2.67;;;;;;;;;;5000467;28;95478;-73
2022/06/07 21:02:04;;;;;;;6.13;2.50;;;;;;;;;;4981141;28;96908;-73
2022/06/07 21:04:31;;;;;;;15.32;2.80;;;;;;;;;;4988385;28;97487;-72
2022/06/07 21:06:57;;;;;;;5.68;2.63;;;;;;;;;;4988991;28;96246;-72
2022/06/07 21:09:24;;;;;;;4.30;2.72;;;;;;;;;;4994312;28;96823;-72
2022/06/07 21:11:50;;;;;;;4.55;2.63;;;;;;;;;;4985888;28;97381;-72
2022/06/07 21:14:16;;;;;;;3.80;2.20;;;;;;;;;;5011192;28;95271;-70
2022/06/07 21:19:45;;;;;;;5.82;3.35;;;;;;;;;;4969882;28;95629;-73
2022/06/07 21:22:12;;;;;;;6.15;3.60;;;;;;;;;;4971455;28;95546;-73
2022/06/07 21:24:39;;;;;;;6.70;3.80;;;;;;;;;;4992593;28;97275;-72
2022/06/07 21:27:27;;;;;;;5.70;3.63;;;;;;;;;;4999773;28;95354;-71
2022/06/07 21:29:54;;;;;;;7.65;4.72;;;;;;;;;;4983716;28;96700;-71
2022/06/07 21:32:20;;;;;;;6.50;4.20;;;;;;;;;;4988722;28;97366;-72
2022/06/07 21:34:47;;;;;;;6.60;4.30;;;;;;;;;;4989147;28;95371;-72
2022/06/07 21:37:13;;;;;;;6.63;3.95;;;;;;;;;;4991598;28;96872;-71
2022/06/07 21:39:39;;;;;;;6.80;4.63;;;;;;;;;;4988867;28;95388;-72
2022/06/07 21:42:42;;;;;;;8.52;4.20;;;;;;;;;;4989877;28;95052;-72
2022/06/07 21:45:09;;;;;;;8.00;4.60;;;;;;;;;;4986465;28;97324;-72
2022/06/07 21:47:35;;;;;;;7.15;4.40;;;;;;;;;;4988841;28;95352;-71
2022/06/07 21:50:03;;;;;;;7.05;4.35;;;;;;;;;;4987240;28;97103;-72
2022/06/07 21:52:29;;;;;;;10.57;4.80;;;;;;;;;;4987806;28;97513;-73
2022/06/07 21:54:56;;;;;;;6.45;4.35;;;;;;;;;;4988871;28;95459;-72
2022/06/07 21:57:23;;;;;;;8.93;4.28;;;;;;;;;;4986038;28;96738;-72
2022/06/07 21:59:49;;;;;;;7.88;4.60;;;;;;;;;;4989576;28;97392;-72
2022/06/07 22:02:16;;;;;;;7.57;4.38;;;;;;;;;;5000967;28;96721;-72
2022/06/07 22:04:42;;;;;;;8.02;4.30;;;;;;;;;;5000390;28;97104;-72
2022/06/07 22:07:27;;;;;;;6.10;3.67;;;;;;;;;;4976328;28;98031;-72
2022/06/07 22:09:53;;;;;;;8.88;4.50;;;;;;;;;;4975149;28;96827;-71
2022/06/07 22:12:20;;;;;;;6.45;4.40;;;;;;;;;;4971829;28;96385;-71
2022/06/07 22:14:46;;;;;;;10.60;5.10;;;;;;;;;;4973992;28;95395;-70
2022/06/07 22:17:13;;;;;;;7.97;4.72;;;;;;;;;;4975479;28;97003;-70
2022/06/07 22:19:39;;;;;;;13.52;4.88;;;;;;;;;;4975416;28;97324;-72
2022/06/07 22:22:06;;;;;;;6.72;4.55;;;;;;;;;;4976303;28;95603;-72
2022/06/07 22:24:32;;;;;;;6.63;4.35;;;;;;;;;;4971744;28;97389;-72
2022/06/07 22:26:58;;;;;;;6.72;4.35;;;;;;;;;;4974508;28;95871;-72
2022/06/07 22:29:40;;;;;;;9.02;5.13;;;;;;;;;;4971466;28;96851;-72
2022/06/07 22:32:08;;;;;;;7.18;4.72;;;;;;;;;;4975369;28;97341;-72
2022/06/07 22:34:35;;;;;;;8.27;4.60;;;;;;;;;;4974607;28;95460;-71
2022/06/07 22:37:01;;;;;;;7.55;4.78;;;;;;;;;;4972697;28;95932;-71
2022/06/07 22:39:28;;;;;;;10.02;5.60;;;;;;;;;;4973668;28;97362;-72
2022/06/07 22:41:54;;;;;;;7.57;4.72;;;;;;;;;;4975014;28;95375;-72
2022/06/07 22:44:20;;;;;;;7.85;4.32;;;;;;;;;;4977117;28;95921;-71
2022/06/07 22:46:47;;;;;;;7.45;4.80;;;;;;;;;;4974762;28;94947;-72
2022/06/07 22:49:13;;;;;;;9.90;4.53;;;;;;;;;;4974370;28;95977;-71
2022/06/07 22:51:41;;;;;;;7.63;4.95;;;;;;;;;;4970142;28;96357;-72
2022/06/07 22:54:25;;;;;;;9.43;4.93;;;;;;;;;;4972815;28;95133;-71
2022/06/07 22:56:52;;;;;;;9.05;4.72;;;;;;;;;;4974368;28;95924;-71
2022/06/07 22:59:24;;;;;;;8.20;5.00;;;;;;;;;;4969726;28;97541;-72
2022/06/07 23:04:56;;;;;;;8.95;5.00;;;;;;;;;;4955122;28;96815;-72
2022/06/07 23:07:25;;;;;;;8.07;4.90;;;;;;;;;;4974221;28;97241;-72
2022/06/07 23:09:52;;;;;;;8.70;5.28;;;;;;;;;;4974491;28;96872;-72
2022/06/07 23:12:18;;;;;;;10.73;5.55;;;;;;;;;;4973917;28;97428;-72
2022/06/07 23:17:29;;;;;;;8.90;5.38;;;;;;;;;;4972609;28;95923;-72
2022/06/07 23:19:58;;;;;;;7.53;5.05;;;;;;;;;;4971964;28;97431;-72
2022/06/07 23:22:27;;;;;;;10.25;6.22;;;;;;;;;;4972649;28;95574;-72
2022/06/07 23:24:54;;;;;;;9.85;5.78;;;;;;;;;;4985142;28;97207;-72
2022/06/07 23:27:38;;;;;;;11.75;6.05;;;;;;;;;;4981364;28;96607;-72
2022/06/07 23:30:23;;;;;;;9.15;5.45;;;;;;;;;;4973306;28;96267;-72
2022/06/07 23:32:50;;;;;;;9.57;5.53;;;;;;;;;;4973414;28;97339;-71
2022/06/07 23:38:20;;;;;;;11.85;6.20;;;;;;;;;;4970433;28;95221;-73
2022/06/07 23:40:46;;;;;;;10.45;5.53;;;;;;;;;;4973460;28;96121;-72
2022/06/07 23:43:12;;;;;;;13.30;6.88;;;;;;;;;;4973633;28;95255;-72
2022/06/07 23:48:24;;;;;;;12.43;6.78;;;;;;;;;;4969115;28;97298;-72
2022/06/07 23:50:51;;;;;;;10.80;6.47;;;;;;;;;;4976003;28;96339;-72
2022/06/07 23:53:19;;;;;;;10.75;5.90;;;;;;;;;;4971645;28;97413;-71
2022/06/07 23:55:47;;;;;;;11.73;6.18;;;;;;;;;;4992960;28;95471;-72
2022/06/07 23:58:15;;;;;;;13.60;6.72;;;;;;;;;;4970803;28;98786;-72
